createdAt,value
2018-10-01T00:00:01.997Z,13.03
2018-10-01T00:02:32.627Z,13.17
2018-10-01T00:05:02.935Z,12.83
2018-10-01T00:07:33.292Z,12.81
2018-10-01T00:10:03.897Z,13.12
2018-10-01T00:12:34.388Z,13.06
2018-10-01T00:15:04.856Z,12.87
2018-10-01T00:17:35.740Z,12.90
2018-10-01T00:20:11.491Z,13.04
2018-10-01T00:22:49.259Z,12.98
2018-10-01T00:25:19.918Z,12.83
2018-10-01T00:27:50.567Z,13.05
2018-10-01T00:30:21.801Z,13.24
2018-10-01T00:32:53.038Z,13.32
2018-10-01T00:35:23.623Z,13.18
2018-10-01T00:37:56.279Z,13.38
2018-10-01T00:40:26.944Z,13.65
2018-10-01T00:42:57.567Z,13.84
2018-10-01T00:45:29.675Z,13.58
2018-10-01T00:48:00.262Z,13.29
2018-10-01T00:50:31.221Z,13.55
2018-10-01T00:53:02.350Z,13.74
2018-10-01T00:55:33.411Z,13.47
2018-10-01T00:58:03.992Z,13.53
2018-10-01T01:00:34.822Z,13.01
2018-10-01T01:03:05.785Z,12.14
2018-10-01T01:05:36.861Z,11.76
2018-10-01T01:08:08.349Z,11.50
2018-10-01T01:10:39.068Z,11.78
2018-10-01T01:13:09.764Z,12.38
2018-10-01T01:15:40.440Z,12.84
2018-10-01T01:18:12.939Z,12.95
2018-10-01T01:20:43.589Z,13.06
2018-10-01T01:23:17.653Z,13.00
2018-10-01T01:25:48.008Z,12.56
2018-10-01T01:28:18.967Z,11.93
2018-10-01T01:30:49.544Z,11.41
2018-10-01T01:33:19.939Z,11.45
2018-10-01T01:35:50.376Z,11.23
2018-10-01T01:38:21.216Z,11.08
2018-10-01T01:40:51.530Z,10.77
2018-10-01T01:43:22.892Z,10.71
2018-10-01T01:45:53.723Z,10.71
2018-10-01T01:48:24.338Z,10.65
2018-10-01T01:50:54.951Z,10.83
2018-10-01T01:53:25.821Z,10.71
2018-10-01T01:55:56.560Z,11.12
2018-10-01T01:58:27.172Z,9.84
2018-10-01T02:00:58.046Z,9.64
2018-10-01T02:03:28.591Z,10.07
2018-10-01T02:05:58.909Z,10.74
2018-10-01T02:08:29.462Z,11.09
2018-10-01T02:11:00.874Z,10.84
2018-10-01T02:13:31.353Z,10.75
2018-10-01T02:16:02.340Z,10.60
2018-10-01T02:18:33.727Z,10.55
2018-10-01T02:21:04.354Z,10.91
2018-10-01T02:23:35.877Z,11.16
2018-10-01T02:26:06.561Z,11.46
2018-10-01T02:28:37.147Z,11.68
2018-10-01T02:31:07.924Z,11.81
2018-10-01T02:33:38.758Z,11.79
2018-10-01T02:36:09.403Z,11.61
2018-10-01T02:38:42.848Z,11.39
2018-10-01T02:41:13.802Z,10.96
2018-10-01T02:43:44.390Z,10.39
2018-10-01T02:46:15.146Z,10.17
2018-10-01T02:48:45.684Z,10.15
2018-10-01T02:51:16.147Z,10.21
2018-10-01T02:53:52.258Z,10.13
2018-10-01T02:56:22.809Z,10.06
2018-10-01T02:58:53.544Z,9.84
2018-10-01T03:01:24.492Z,9.56
2018-10-01T03:03:55.248Z,9.48
2018-10-01T03:06:25.712Z,9.61
2018-10-01T03:08:56.395Z,9.67
2018-10-01T03:11:27.350Z,9.66
2018-10-01T03:14:00.216Z,9.64
2018-10-01T03:16:31.336Z,9.67
2018-10-01T03:19:02.390Z,9.58
2018-10-01T03:21:32.661Z,9.29
2018-10-01T03:24:03.501Z,9.16
2018-10-01T03:26:34.065Z,8.95
2018-10-01T03:29:04.591Z,8.78
2018-10-01T03:31:35.301Z,8.75
2018-10-01T03:34:05.926Z,8.72
2018-10-01T03:36:37.450Z,8.60
2018-10-01T03:39:09.564Z,8.59
2018-10-01T03:41:40.554Z,8.80
2018-10-01T03:44:11.695Z,8.71
2018-10-01T03:46:42.380Z,8.78
2018-10-01T03:49:13.474Z,8.70
2018-10-01T03:51:45.257Z,8.67
2018-10-01T03:54:15.858Z,8.59
2018-10-01T03:56:46.609Z,8.48
2018-10-01T03:59:16.912Z,8.32
2018-10-01T04:01:47.975Z,8.13
2018-10-01T04:04:18.593Z,8.08
2018-10-01T04:06:49.329Z,8.01
2018-10-01T04:09:19.929Z,8.08
2018-10-01T04:11:51.001Z,8.05
2018-10-01T04:14:21.297Z,8.03
2018-10-01T04:16:51.644Z,7.90
2018-10-01T04:19:21.963Z,7.95
2018-10-01T04:21:52.792Z,7.90
2018-10-01T04:24:23.279Z,7.60
2018-10-01T04:26:54.287Z,7.67
2018-10-01T04:29:28.048Z,7.44
2018-10-01T04:31:58.392Z,7.59
2018-10-01T04:34:29.010Z,7.50
2018-10-01T04:36:59.526Z,7.59
2018-10-01T04:39:30.077Z,7.68
2018-10-01T04:42:00.673Z,7.61
2018-10-01T04:44:31.578Z,7.59
2018-10-01T04:47:03.612Z,7.62
2018-10-01T04:49:34.196Z,7.69
2018-10-01T04:52:04.877Z,7.74
2018-10-01T04:54:36.784Z,7.81
2018-10-01T04:57:07.849Z,7.93
2018-10-01T04:59:38.442Z,8.03
2018-10-01T05:02:09.108Z,8.06
2018-10-01T05:04:40.960Z,8.20
2018-10-01T05:07:11.261Z,8.14
2018-10-01T05:09:42.150Z,8.00
2018-10-01T05:12:12.920Z,8.02
2018-10-01T05:14:43.990Z,8.01
2018-10-01T05:17:15.107Z,7.93
2018-10-01T05:19:46.517Z,7.94
2018-10-01T05:22:17.136Z,8.01
2018-10-01T05:24:47.421Z,8.22
2018-10-01T05:27:18.760Z,8.25
2018-10-01T05:29:49.480Z,8.24
2018-10-01T05:32:20.244Z,8.17
2018-10-01T05:34:56.590Z,8.08
2018-10-01T05:37:27.597Z,8.27
2018-10-01T05:39:58.841Z,8.36
2018-10-01T05:42:30.043Z,8.52
2018-10-01T05:45:01.055Z,8.69
2018-10-01T05:47:31.374Z,8.98
2018-10-01T05:50:02.633Z,9.22
2018-10-01T05:52:33.366Z,9.22
2018-10-01T05:55:03.919Z,9.31
2018-10-01T05:57:34.840Z,9.44
2018-10-01T06:00:06.020Z,9.61
2018-10-01T06:02:36.394Z,9.78
2018-10-01T06:05:07.872Z,10.07
2018-10-01T06:07:38.261Z,10.56
2018-10-01T06:10:08.829Z,11.15
2018-10-01T06:12:39.476Z,11.51
2018-10-01T06:15:10.514Z,11.42
2018-10-01T06:17:41.662Z,11.55
2018-10-01T06:20:13.380Z,11.97
2018-10-01T06:22:44.756Z,12.29
2018-10-01T06:25:15.558Z,12.28
2018-10-01T06:27:46.475Z,12.06
2018-10-01T06:30:17.118Z,11.44
2018-10-01T06:32:48.444Z,11.67
2018-10-01T06:35:18.964Z,11.62
2018-10-01T06:37:49.633Z,11.37
2018-10-01T06:40:20.425Z,11.15
2018-10-01T06:42:50.690Z,11.06
2018-10-01T06:45:21.132Z,11.36
2018-10-01T06:47:51.972Z,10.96
2018-10-01T06:50:22.522Z,11.19
2018-10-01T06:52:52.848Z,11.26
2018-10-01T06:55:23.386Z,11.99
2018-10-01T06:57:54.162Z,12.56
2018-10-01T07:00:24.745Z,12.21
2018-10-01T07:02:55.517Z,11.67
2018-10-01T07:05:26.705Z,11.47
2018-10-01T07:07:57.942Z,11.69
2018-10-01T07:10:28.648Z,11.76
2018-10-01T07:12:59.208Z,11.85
2018-10-01T07:15:29.576Z,11.91
2018-10-01T07:18:00.121Z,11.84
2018-10-01T07:20:30.781Z,12.00
2018-10-01T07:23:01.829Z,11.67
2018-10-01T07:25:32.218Z,12.20
2018-10-01T07:28:02.603Z,12.98
2018-10-01T07:30:33.345Z,12.83
2018-10-01T07:33:03.991Z,13.00
2018-10-01T07:35:35.123Z,13.33
2018-10-01T07:38:06.355Z,13.31
2018-10-01T07:40:37.384Z,13.92
2018-10-01T07:43:08.007Z,14.10
2018-10-01T07:45:38.537Z,14.22
2018-10-01T07:48:09.416Z,14.42
2018-10-01T07:50:40.364Z,14.57
2018-10-01T07:53:10.795Z,14.70
2018-10-01T07:55:41.459Z,14.01
2018-10-01T07:58:12.220Z,14.48
2018-10-01T08:00:42.775Z,14.77
2018-10-01T08:03:13.133Z,15.16
2018-10-01T08:05:43.806Z,14.64
2018-10-01T08:08:14.341Z,14.54
2018-10-01T08:10:45.212Z,13.91
2018-10-01T08:13:15.903Z,12.79
2018-10-01T08:15:46.585Z,14.31
2018-10-01T08:18:17.704Z,14.10
2018-10-01T08:20:48.316Z,14.31
2018-10-01T08:23:19.893Z,14.83
2018-10-01T08:25:51.142Z,14.20
2018-10-01T08:28:22.207Z,13.92
2018-10-01T08:30:52.755Z,13.81
2018-10-01T08:33:23.281Z,14.38
2018-10-01T08:35:54.112Z,14.50
2018-10-01T08:38:26.297Z,14.67
2018-10-01T08:40:57.129Z,14.70
2018-10-01T08:43:27.845Z,13.84
2018-10-01T08:45:58.348Z,13.52
2018-10-01T08:48:30.622Z,13.84
2018-10-01T08:51:05.821Z,13.39
2018-10-01T08:53:48.128Z,13.73
2018-10-01T08:56:18.508Z,14.03
2018-10-01T08:58:50.311Z,14.13
2018-10-01T09:01:21.001Z,13.43
2018-10-01T09:03:51.589Z,13.79
2018-10-01T09:06:23.183Z,14.29
2018-10-01T09:08:54.697Z,14.36
2018-10-01T09:11:25.875Z,14.31
2018-10-01T09:13:56.633Z,13.81
2018-10-01T09:16:27.855Z,13.96
2018-10-01T09:18:59.229Z,14.44
2018-10-01T09:21:33.135Z,14.97
2018-10-01T09:24:03.908Z,14.89
2018-10-01T09:26:35.018Z,14.47
2018-10-01T09:29:05.826Z,14.26
2018-10-01T09:31:36.216Z,14.13
2018-10-01T09:34:07.129Z,14.61
2018-10-01T09:36:38.009Z,14.38
2018-10-01T09:39:10.766Z,14.06
2018-10-01T09:41:42.579Z,14.03
2018-10-01T09:44:13.817Z,14.09
2018-10-01T09:46:44.387Z,14.05
2018-10-01T09:49:16.102Z,14.16
2018-10-01T09:51:46.833Z,14.86
2018-10-01T09:54:17.362Z,15.22
2018-10-01T09:56:48.305Z,15.88
2018-10-01T09:59:18.660Z,15.95
2018-10-01T10:01:49.034Z,16.06
2018-10-01T10:04:19.496Z,16.43
2018-10-01T10:06:50.365Z,16.67
2018-10-01T10:11:59.907Z,16.76
2018-10-01T10:14:31.762Z,16.99
2018-10-01T10:17:03.573Z,16.38
2018-10-01T10:19:34.788Z,16.26
2018-10-01T10:22:05.540Z,16.86
2018-10-01T10:24:36.913Z,20.94
2018-10-01T10:27:07.473Z,28.12
2018-10-01T10:29:38.297Z,31.22
2018-10-01T10:32:09.395Z,31.58
2018-10-01T10:34:40.138Z,29.89
2018-10-01T10:37:10.649Z,31.16
2018-10-01T10:39:41.022Z,32.87
2018-10-01T10:42:11.521Z,32.28
2018-10-01T10:44:42.080Z,28.23
2018-10-01T10:47:12.825Z,21.91
2018-10-01T10:49:43.134Z,20.73
2018-10-01T10:52:13.665Z,19.71
2018-10-01T10:54:44.214Z,18.98
2018-10-01T10:57:14.816Z,19.80
2018-10-01T10:59:45.498Z,20.66
2018-10-01T11:02:16.458Z,20.53
2018-10-01T11:04:47.276Z,20.84
2018-10-01T11:07:17.742Z,20.38
2018-10-01T11:09:48.612Z,20.98
2018-10-01T11:12:19.210Z,21.45
2018-10-01T11:14:49.777Z,21.37
2018-10-01T11:17:50.920Z,21.14
2018-10-01T11:20:21.781Z,22.08
2018-10-01T11:22:52.130Z,21.16
2018-10-01T11:25:22.947Z,20.54
2018-10-01T11:27:53.665Z,20.71
2018-10-01T11:30:24.904Z,19.82
2018-10-01T11:32:55.202Z,19.08
2018-10-01T11:35:26.100Z,19.80
2018-10-01T11:37:56.683Z,19.21
2018-10-01T11:40:27.425Z,19.57
2018-10-01T11:42:58.066Z,20.15
2018-10-01T11:45:28.961Z,20.03
2018-10-01T11:47:59.705Z,19.24
2018-10-01T11:50:31.411Z,18.43
2018-10-01T11:53:01.892Z,18.18
2018-10-01T11:55:32.338Z,18.32
2018-10-01T11:58:02.595Z,18.06
2018-10-01T12:00:33.583Z,17.93
2018-10-01T12:03:04.061Z,17.64
2018-10-01T12:05:35.572Z,17.40
2018-10-01T12:08:05.849Z,17.80
2018-10-01T12:10:36.650Z,17.32
2018-10-01T12:13:07.491Z,16.59
2018-10-01T12:15:38.086Z,16.38
2018-10-01T12:18:09.373Z,16.68
2018-10-01T12:20:40.178Z,17.10
2018-10-01T12:23:10.821Z,16.96
2018-10-01T12:25:41.365Z,16.87
2018-10-01T12:28:12.133Z,16.56
2018-10-01T12:30:43.323Z,16.54
2018-10-01T12:33:14.272Z,16.49
2018-10-01T12:35:45.809Z,16.41
2018-10-01T12:38:17.308Z,16.33
2018-10-01T12:40:47.833Z,16.46
2018-10-01T12:43:18.361Z,16.19
2018-10-01T12:45:49.138Z,16.37
2018-10-01T12:48:19.673Z,15.98
2018-10-01T12:50:50.194Z,16.14
2018-10-01T12:53:22.189Z,16.35
2018-10-01T12:55:52.516Z,16.23
2018-10-01T12:58:23.452Z,16.35
2018-10-01T13:00:53.941Z,16.25
2018-10-01T13:03:25.224Z,16.21
2018-10-01T13:05:55.953Z,16.59
2018-10-01T13:08:26.524Z,16.46
2018-10-01T13:10:57.196Z,16.15
2018-10-01T13:13:27.930Z,16.21
2018-10-01T13:15:58.216Z,16.13
2018-10-01T13:18:28.812Z,16.24
2018-10-01T13:20:59.502Z,16.20
2018-10-01T13:23:30.009Z,16.03
2018-10-01T13:26:00.492Z,15.99
2018-10-01T13:28:30.817Z,15.98
2018-10-01T13:31:01.865Z,16.18
2018-10-01T13:33:32.326Z,15.98
2018-10-01T13:36:02.959Z,15.72
2018-10-01T13:38:34.514Z,15.66
2018-10-01T13:41:05.288Z,15.55
2018-10-01T13:43:36.316Z,15.29
2018-10-01T13:46:07.063Z,15.25
2018-10-01T13:48:37.952Z,15.11
2018-10-01T13:51:08.990Z,15.13
2018-10-01T13:53:39.728Z,15.02
2018-10-01T13:56:10.288Z,14.76
2018-10-01T13:58:45.656Z,14.52
2018-10-01T14:01:15.939Z,14.60
2018-10-01T14:03:46.643Z,14.47
2018-10-01T14:06:17.416Z,14.19
2018-10-01T14:08:48.931Z,14.11
2018-10-01T14:11:19.445Z,14.09
2018-10-01T14:13:50.187Z,13.88
2018-10-01T14:16:20.918Z,13.82
2018-10-01T14:18:51.218Z,13.70
2018-10-01T14:21:22.062Z,13.45
2018-10-01T14:23:52.606Z,13.35
2018-10-01T14:26:24.445Z,13.26
2018-10-01T14:28:55.078Z,13.45
2018-10-01T14:31:26.570Z,13.36
2018-10-01T14:33:57.535Z,13.21
2018-10-01T14:36:28.174Z,13.23
2018-10-01T14:38:58.940Z,13.22
2018-10-01T14:41:29.719Z,13.01
2018-10-01T14:44:00.498Z,12.98
2018-10-01T14:46:30.930Z,12.96
2018-10-01T14:49:01.492Z,12.90
2018-10-01T14:51:31.747Z,12.72
2018-10-01T14:54:02.368Z,12.72
2018-10-01T14:56:32.825Z,12.67
2018-10-01T14:59:03.381Z,12.65
2018-10-01T15:01:34.005Z,12.57
2018-10-01T15:04:04.743Z,12.52
2018-10-01T15:06:35.647Z,12.50
2018-10-01T15:09:08.974Z,12.57
2018-10-01T15:11:39.392Z,12.58
2018-10-01T15:14:09.652Z,12.54
2018-10-01T15:16:39.967Z,12.58
2018-10-01T15:19:10.488Z,12.59
2018-10-01T15:21:41.192Z,12.60
2018-10-01T15:24:12.388Z,12.56
2018-10-01T15:26:43.013Z,12.62
2018-10-01T15:29:13.524Z,12.57
2018-10-01T15:31:44.337Z,12.68
2018-10-01T15:34:15.081Z,12.66
2018-10-01T15:36:45.929Z,12.71
2018-10-01T15:39:16.836Z,12.70
2018-10-01T15:41:47.410Z,12.69
2018-10-01T15:44:18.046Z,12.72
2018-10-01T15:46:49.901Z,12.57
2018-10-01T15:49:20.219Z,12.67
2018-10-01T15:51:50.849Z,12.61
2018-10-01T15:54:21.483Z,12.64
2018-10-01T15:56:52.158Z,12.61
2018-10-01T15:59:22.808Z,12.59
2018-10-01T16:01:53.379Z,12.67
2018-10-01T16:04:23.626Z,12.65
2018-10-01T16:06:54.019Z,12.62
2018-10-01T16:09:24.665Z,12.61
2018-10-01T16:11:55.653Z,12.59
2018-10-01T16:14:26.611Z,12.42
2018-10-01T16:16:57.213Z,12.68
2018-10-01T16:19:28.708Z,12.71
2018-10-01T16:21:59.306Z,12.67
2018-10-01T16:24:29.510Z,12.58
2018-10-01T16:27:00.341Z,12.57
2018-10-01T16:29:31.985Z,12.51
2018-10-01T16:32:03.097Z,12.52
2018-10-01T16:34:33.828Z,12.44
2018-10-01T16:37:04.740Z,12.60
2018-10-01T16:39:35.637Z,12.61
2018-10-01T16:42:06.263Z,12.49
2018-10-01T16:44:41.341Z,12.55
2018-10-01T16:47:11.854Z,12.48
2018-10-01T16:49:42.409Z,12.49
2018-10-01T16:52:12.815Z,12.50
2018-10-01T16:54:43.510Z,12.45
2018-10-01T16:57:14.269Z,12.51
2018-10-01T16:59:45.060Z,12.49
2018-10-01T17:02:15.620Z,12.48
2018-10-01T17:04:46.153Z,12.46
2018-10-01T17:07:16.860Z,12.42
2018-10-01T17:09:47.491Z,12.47
2018-10-01T17:12:18.057Z,12.48
2018-10-01T17:14:48.592Z,12.43
2018-10-01T17:17:19.346Z,12.44
2018-10-01T17:19:49.713Z,12.42
2018-10-01T17:22:20.163Z,12.52
2018-10-01T17:24:50.577Z,12.57
2018-10-01T17:27:21.238Z,12.71
2018-10-01T17:29:51.670Z,12.72
2018-10-01T17:32:22.317Z,12.57
2018-10-01T17:34:52.744Z,12.57
2018-10-01T17:37:23.325Z,12.59
2018-10-01T17:39:53.836Z,12.65
2018-10-01T17:42:24.428Z,12.69
2018-10-01T17:44:55.291Z,12.53
2018-10-01T17:47:25.864Z,12.69
2018-10-01T17:49:56.624Z,12.71
2018-10-01T17:52:27.045Z,12.64
2018-10-01T17:54:57.699Z,12.57
2018-10-01T17:57:28.736Z,12.65
2018-10-01T17:59:59.708Z,12.61
2018-10-01T18:02:30.469Z,12.63
2018-10-01T18:05:00.776Z,12.65
2018-10-01T18:07:31.344Z,12.71
2018-10-01T18:10:02.995Z,12.52
2018-10-01T18:12:33.570Z,12.72
2018-10-01T18:15:04.458Z,12.75
2018-10-01T18:17:35.016Z,12.81
2018-10-01T18:20:05.456Z,12.75
2018-10-01T18:22:36.161Z,12.90
2018-10-01T18:25:07.777Z,12.94
2018-10-01T18:27:38.601Z,12.51
2018-10-01T18:30:10.114Z,12.88
2018-10-01T18:32:40.923Z,12.97
2018-10-01T18:35:11.612Z,12.92
2018-10-01T18:37:42.243Z,12.89
2018-10-01T18:40:14.559Z,12.94
2018-10-01T18:42:45.117Z,12.99
2018-10-01T18:45:18.024Z,12.98
2018-10-01T18:47:48.892Z,13.01
2018-10-01T18:50:19.837Z,12.78
2018-10-01T18:52:50.905Z,12.72
2018-10-01T18:55:21.466Z,12.70
2018-10-01T18:57:52.097Z,12.60
2018-10-01T19:00:22.870Z,12.66
2018-10-01T19:02:58.643Z,12.59
2018-10-01T19:05:29.258Z,12.54
2018-10-01T19:08:00.171Z,12.58
2018-10-01T19:10:30.505Z,12.60
2018-10-01T19:13:01.710Z,12.49
2018-10-01T19:15:32.308Z,12.53
2018-10-01T19:18:03.102Z,12.63
2018-10-01T19:20:33.802Z,12.65
2018-10-01T19:23:04.307Z,12.54
2018-10-01T19:25:34.868Z,12.48
2018-10-01T19:28:05.153Z,12.52
2018-10-01T19:30:37.441Z,12.51
2018-10-01T19:33:08.649Z,12.37
2018-10-01T19:35:39.368Z,12.52
2018-10-01T19:38:10.405Z,12.54
2018-10-01T19:40:41.232Z,12.55
2018-10-01T19:43:11.848Z,12.58
2018-10-01T19:45:42.784Z,12.52
2018-10-01T19:48:13.374Z,12.39
2018-10-01T19:50:44.005Z,12.42
2018-10-01T19:53:14.858Z,12.37
2018-10-01T19:55:45.637Z,12.36
2018-10-01T19:58:16.215Z,12.35
2018-10-01T20:00:46.916Z,12.27
2018-10-01T20:03:17.901Z,12.25
2018-10-01T20:05:48.355Z,12.22
2018-10-01T20:08:18.665Z,12.32
2018-10-01T20:10:49.264Z,12.32
2018-10-01T20:13:20.145Z,12.34
2018-10-01T20:15:51.331Z,12.24
2018-10-01T20:18:22.340Z,12.20
2018-10-01T20:20:52.976Z,12.20
2018-10-01T20:23:23.513Z,12.18
2018-10-01T20:25:54.138Z,12.30
2018-10-01T20:28:25.045Z,12.37
2018-10-01T20:30:56.074Z,12.31
2018-10-01T20:33:26.657Z,12.21
2018-10-01T20:35:57.180Z,12.10
2018-10-01T20:38:27.888Z,11.90
2018-10-01T20:40:58.748Z,11.78
2018-10-01T20:43:29.249Z,11.79
2018-10-01T20:46:00.179Z,11.76
2018-10-01T20:48:30.950Z,11.76
2018-10-01T20:51:01.655Z,11.77
2018-10-01T20:53:32.112Z,11.65
2018-10-01T20:56:02.907Z,11.64
2018-10-01T20:58:33.720Z,11.59
2018-10-01T21:01:04.738Z,11.60
2018-10-01T21:03:35.321Z,11.55
2018-10-01T21:06:05.872Z,11.62
2018-10-01T21:08:37.837Z,11.57
2018-10-01T21:11:09.060Z,11.65
2018-10-01T21:13:41.129Z,11.64
2018-10-01T21:16:14.808Z,11.62
2018-10-01T21:18:45.645Z,11.58
2018-10-01T21:21:17.353Z,11.68
2018-10-01T21:23:47.919Z,11.62
2018-10-01T21:26:18.461Z,11.67
2018-10-01T21:28:49.198Z,11.57
2018-10-01T21:31:19.777Z,11.58
2018-10-01T21:33:50.217Z,11.62
2018-10-01T21:36:20.822Z,11.63
2018-10-01T21:38:51.674Z,11.60
2018-10-01T21:41:23.433Z,11.52
2018-10-01T21:43:54.989Z,11.49
2018-10-01T21:46:26.189Z,11.53
2018-10-01T21:48:58.309Z,11.59
2018-10-01T21:51:29.867Z,11.50
2018-10-01T21:54:00.426Z,11.51
2018-10-01T21:56:30.793Z,11.45
2018-10-01T21:59:01.086Z,11.49
2018-10-01T22:01:38.643Z,11.53
2018-10-01T22:04:09.500Z,11.48
2018-10-01T22:06:39.978Z,11.48
2018-10-01T22:09:10.307Z,11.45
2018-10-01T22:11:41.451Z,11.46
2018-10-01T22:14:12.070Z,11.51
2018-10-01T22:16:42.291Z,11.47
2018-10-01T22:19:13.445Z,11.52
2018-10-01T22:21:44.772Z,11.53
2018-10-01T22:24:15.333Z,11.55
2018-10-01T22:26:45.840Z,11.49
2018-10-01T22:29:16.465Z,11.53
2018-10-01T22:31:47.243Z,11.61
2018-10-01T22:34:17.933Z,11.60
2018-10-01T22:36:48.474Z,11.59
2018-10-01T22:39:19.002Z,11.55
2018-10-01T22:41:49.659Z,11.59
2018-10-01T22:44:19.936Z,11.54
2018-10-01T22:46:50.707Z,11.59
2018-10-01T22:49:22.237Z,11.58
2018-10-01T22:51:53.175Z,11.51
2018-10-01T22:54:23.681Z,11.52
2018-10-01T22:56:54.176Z,11.54
2018-10-01T22:59:25.213Z,11.64
2018-10-01T23:01:55.500Z,11.55
2018-10-01T23:04:26.266Z,11.56
2018-10-01T23:06:56.657Z,11.61
2018-10-01T23:09:27.304Z,11.62
2018-10-01T23:11:57.915Z,11.72
2018-10-01T23:14:29.040Z,11.53
2018-10-01T23:16:59.631Z,11.54
2018-10-01T23:19:30.115Z,11.55
2018-10-01T23:22:00.730Z,11.59
2018-10-01T23:24:31.476Z,11.51
2018-10-01T23:27:01.996Z,11.46
2018-10-01T23:29:32.580Z,11.39
2018-10-01T23:32:03.034Z,11.39
2018-10-01T23:34:33.853Z,11.35
2018-10-01T23:37:04.377Z,11.33
2018-10-01T23:39:34.906Z,11.33
2018-10-01T23:42:05.449Z,11.43
2018-10-01T23:44:36.881Z,11.39
2018-10-01T23:47:07.808Z,11.36
2018-10-01T23:49:38.376Z,11.41
2018-10-01T23:52:09.751Z,11.31
2018-10-01T23:54:40.013Z,11.38
2018-10-01T23:57:10.705Z,11.39
2018-10-01T23:59:41.594Z,11.21
